Time;durP1;ratioP1;P1;durP2;ratioP2;P2;SDS_P1;SDS_P2;PMS_P1;PMS_P2;Temp;Humidity;BMP_temperature;BMP_pressure;BME280_temperature;BME280_humidity;BME280_pressure;Samples;Min_cycle;Max_cycle;Signal;HPM_P1;HPM_P2
2021/04/15 00:01:58;;;;;;;13.45;2.80;;;;;;;;;;4108810;34;20072;-79
2021/04/15 00:04:32;;;;;;;17.80;3.20;;;;;;;;;;4101007;34;20179;-79
2021/04/15 00:07:02;;;;;;;19.67;3.25;;;;;;;;;;4109376;34;20470;-80
2021/04/15 00:09:34;;;;;;;17.80;2.60;;;;;;;;;;4106324;34;20292;-80
2021/04/15 00:12:05;;;;;;;19.95;3.00;;;;;;;;;;4110883;34;20454;-78
2021/04/15 00:14:36;;;;;;;15.57;2.83;;;;;;;;;;4105847;34;20088;-80
2021/04/15 00:17:07;;;;;;;16.00;3.22;;;;;;;;;;4103881;34;20096;-80
2021/04/15 00:19:38;;;;;;;17.17;2.65;;;;;;;;;;4101293;34;20158;-81
2021/04/15 00:22:11;;;;;;;16.65;2.70;;;;;;;;;;4097821;34;20176;-79
2021/04/15 00:24:42;;;;;;;19.17;3.17;;;;;;;;;;4101702;34;20118;-79
2021/04/15 00:27:12;;;;;;;16.85;3.08;;;;;;;;;;4100354;34;20164;-80
2021/04/15 00:29:42;;;;;;;14.20;2.85;;;;;;;;;;4104471;34;20112;-81
2021/04/15 00:32:12;;;;;;;19.25;3.08;;;;;;;;;;4097047;34;20405;-80
2021/04/15 00:34:46;;;;;;;14.57;2.80;;;;;;;;;;4101701;34;20054;-80
2021/04/15 00:37:20;;;;;;;18.27;2.97;;;;;;;;;;4109403;34;20135;-80
2021/04/15 00:39:50;;;;;;;17.73;2.35;;;;;;;;;;4098492;34;20065;-80
2021/04/15 00:42:21;;;;;;;11.85;2.75;;;;;;;;;;4093106;34;20077;-79
2021/04/15 00:44:54;;;;;;;20.25;2.92;;;;;;;;;;4107502;34;20124;-80
2021/04/15 00:47:32;;;;;;;18.05;3.00;;;;;;;;;;4106396;34;20132;-79
2021/04/15 00:50:07;;;;;;;16.80;3.08;;;;;;;;;;4097661;34;20114;-79
2021/04/15 00:52:41;;;;;;;24.25;3.03;;;;;;;;;;4097543;34;20079;-80
2021/04/15 00:55:13;;;;;;;16.15;3.15;;;;;;;;;;4106293;34;20117;-79
2021/04/15 00:57:48;;;;;;;18.90;3.30;;;;;;;;;;4099342;34;20101;-79
2021/04/15 01:00:23;;;;;;;22.95;3.30;;;;;;;;;;4100936;34;20595;-78
2021/04/15 01:02:54;;;;;;;20.98;3.72;;;;;;;;;;4096533;34;20065;-80
2021/04/15 01:05:28;;;;;;;17.67;3.70;;;;;;;;;;4102466;34;20182;-79
2021/04/15 01:08:01;;;;;;;18.70;3.20;;;;;;;;;;4105116;34;20093;-79
2021/04/15 01:10:35;;;;;;;20.12;3.05;;;;;;;;;;4097684;34;20109;-79
2021/04/15 01:13:08;;;;;;;19.05;3.65;;;;;;;;;;4103485;34;20092;-81
2021/04/15 01:15:59;;;;;;;19.17;3.40;;;;;;;;;;4099518;34;21959;-80
2021/04/15 01:18:32;;;;;;;17.17;3.37;;;;;;;;;;4105868;34;20222;-80
2021/04/15 01:21:03;;;;;;;20.20;3.53;;;;;;;;;;4097651;34;20124;-81
2021/04/15 01:23:39;;;;;;;21.70;3.53;;;;;;;;;;4106015;34;20084;-78
2021/04/15 01:26:49;;;;;;;13.02;3.05;;;;;;;;;;4104514;34;20825;-79
2021/04/15 01:29:29;;;;;;;21.87;3.22;;;;;;;;;;4054864;35;20251;-80
2021/04/15 01:32:00;;;;;;;20.25;3.45;;;;;;;;;;4098036;34;20374;-80
2021/04/15 01:34:47;;;;;;;18.45;2.92;;;;;;;;;;4106555;34;20140;-80
2021/04/15 01:37:22;;;;;;;23.17;3.80;;;;;;;;;;4101727;34;20076;-80
2021/04/15 01:39:58;;;;;;;18.65;3.62;;;;;;;;;;4105287;34;20209;-80
2021/04/15 01:42:32;;;;;;;24.63;4.12;;;;;;;;;;4104805;34;20061;-79
2021/04/15 01:45:07;;;;;;;18.10;3.10;;;;;;;;;;4096293;34;20101;-80
2021/04/15 01:47:42;;;;;;;17.42;3.30;;;;;;;;;;4102481;34;20885;-79
2021/04/15 01:50:16;;;;;;;18.37;3.47;;;;;;;;;;4097617;34;20151;-80
2021/04/15 01:52:48;;;;;;;19.40;3.22;;;;;;;;;;4101653;34;20084;-80
2021/04/15 01:55:18;;;;;;;17.85;3.00;;;;;;;;;;4101395;34;20619;-79
2021/04/15 01:58:00;;;;;;;11.63;2.65;;;;;;;;;;4109574;34;20477;-78
2021/04/15 02:00:33;;;;;;;15.95;3.70;;;;;;;;;;4097362;34;20445;-80
2021/04/15 02:03:14;;;;;;;20.10;3.40;;;;;;;;;;4104715;34;20081;-79
2021/04/15 02:05:45;;;;;;;15.82;3.00;;;;;;;;;;4105430;34;20069;-80
2021/04/15 02:08:19;;;;;;;15.65;3.08;;;;;;;;;;4108366;34;20128;-79
2021/04/15 02:11:02;;;;;;;14.85;2.42;;;;;;;;;;4102169;34;20090;-80
2021/04/15 02:13:34;;;;;;;19.90;2.87;;;;;;;;;;4082299;34;20236;-81
2021/04/15 02:16:11;;;;;;;15.25;2.83;;;;;;;;;;4113222;34;20054;-79
2021/04/15 02:18:53;;;;;;;14.07;2.83;;;;;;;;;;4107314;34;20081;-79
2021/04/15 02:21:29;;;;;;;15.60;2.90;;;;;;;;;;4102382;34;20064;-79
2021/04/15 02:24:13;;;;;;;19.83;3.92;;;;;;;;;;4099752;34;20077;-80
2021/04/15 02:26:47;;;;;;;17.55;3.33;;;;;;;;;;4101249;34;20088;-79
2021/04/15 02:29:21;;;;;;;15.10;2.75;;;;;;;;;;4111342;34;20057;-79
2021/04/15 02:31:54;;;;;;;17.05;2.78;;;;;;;;;;4108784;34;21106;-79
2021/04/15 02:34:26;;;;;;;17.00;3.15;;;;;;;;;;4104845;34;20120;-79
2021/04/15 02:37:08;;;;;;;15.63;3.30;;;;;;;;;;4113579;34;20081;-79
2021/04/15 02:39:41;;;;;;;15.38;2.80;;;;;;;;;;4109687;34;20082;-79
2021/04/15 02:42:16;;;;;;;14.75;3.03;;;;;;;;;;4106002;34;20040;-80
2021/04/15 02:44:53;;;;;;;18.17;3.47;;;;;;;;;;4106253;34;20371;-78
2021/04/15 02:47:33;;;;;;;17.30;3.58;;;;;;;;;;4111227;34;20469;-79
2021/04/15 02:50:09;;;;;;;15.57;3.22;;;;;;;;;;4105241;34;20512;-79
2021/04/15 02:52:42;;;;;;;15.38;3.00;;;;;;;;;;4105679;34;20533;-80
2021/04/15 02:55:21;;;;;;;14.25;3.00;;;;;;;;;;4105248;34;20239;-79
2021/04/15 02:58:03;;;;;;;11.73;2.47;;;;;;;;;;4110817;34;20125;-79
2021/04/15 03:00:40;;;;;;;19.52;3.08;;;;;;;;;;4106911;34;20577;-79
2021/04/15 03:03:11;;;;;;;16.80;2.95;;;;;;;;;;4108980;34;20103;-79
2021/04/15 03:05:54;;;;;;;17.60;2.90;;;;;;;;;;4107322;34;20422;-80
2021/04/15 03:08:26;;;;;;;17.45;3.08;;;;;;;;;;4104154;34;20559;-79
2021/04/15 03:11:04;;;;;;;17.98;2.85;;;;;;;;;;4144950;29;20200;-93
2021/04/15 03:13:49;;;;;;;11.55;2.33;;;;;;;;;;4138566;34;20140;-94
2021/04/15 03:16:30;;;;;;;14.35;2.75;;;;;;;;;;4146799;34;20067;-93
2021/04/15 03:19:03;;;;;;;9.32;2.20;;;;;;;;;;4139913;34;20122;-93
2021/04/15 03:21:41;;;;;;;11.98;3.12;;;;;;;;;;4149673;34;20564;-94
2021/04/15 03:24:47;;;;;;;15.25;2.70;;;;;;;;;;4139558;34;20041;-96
2021/04/15 03:27:32;;;;;;;15.25;3.15;;;;;;;;;;4150385;34;20114;-93
2021/04/15 03:30:02;;;;;;;27.23;12.23;;;;;;;;;;4147471;34;20391;-93
2021/04/15 03:32:49;;;;;;;18.15;9.07;;;;;;;;;;4136106;34;20053;-94
2021/04/15 03:35:33;;;;;;;24.27;3.83;;;;;;;;;;4153353;34;20064;-93
2021/04/15 03:38:24;;;;;;;15.32;3.30;;;;;;;;;;4141652;34;20068;-95
2021/04/15 03:40:57;;;;;;;15.50;2.75;;;;;;;;;;4131820;34;20049;-94
2021/04/15 03:43:33;;;;;;;14.27;2.83;;;;;;;;;;4129934;34;20139;-94
2021/04/15 03:46:13;;;;;;;17.73;3.58;;;;;;;;;;4138215;34;20052;-93
2021/04/15 03:49:17;;;;;;;15.77;3.08;;;;;;;;;;4139523;34;20060;-95
2021/04/15 03:52:22;;;;;;;10.52;2.72;;;;;;;;;;4150616;34;20066;-94
2021/04/15 03:55:12;;;;;;;17.12;3.30;;;;;;;;;;4145881;34;20149;-93
2021/04/15 03:57:57;;;;;;;13.65;2.67;;;;;;;;;;4140592;34;20040;-94
2021/04/15 04:00:58;;;;;;;17.37;3.60;;;;;;;;;;4142677;34;20064;-93
2021/04/15 04:04:14;;;;;;;13.75;3.08;;;;;;;;;;4159759;34;20078;-93
2021/04/15 04:07:05;;;;;;;15.57;3.37;;;;;;;;;;4152643;34;20063;-94
2021/04/15 04:09:42;;;;;;;14.68;3.05;;;;;;;;;;4153476;34;20063;-95
2021/04/15 04:13:12;;;;;;;14.27;2.70;;;;;;;;;;4143766;34;20092;-94
2021/04/15 04:16:19;;;;;;;14.30;2.85;;;;;;;;;;4153981;34;20096;-94
2021/04/15 04:19:44;;;;;;;17.30;3.20;;;;;;;;;;4164232;34;20090;-95
2021/04/15 04:22:44;;;;;;;19.65;3.20;;;;;;;;;;4146896;34;20075;-94
2021/04/15 04:26:22;;;;;;;17.92;2.90;;;;;;;;;;4136299;34;20071;-94
2021/04/15 04:29:13;;;;;;;13.73;3.45;;;;;;;;;;4165854;34;20056;-94
2021/04/15 04:32:21;;;;;;;12.93;2.65;;;;;;;;;;4140490;34;20105;-95
2021/04/15 04:35:32;;;;;;;;;;;;;;;;;;4152521;34;20431;-95
2021/04/15 04:38:16;;;;;;;17.67;2.55;;;;;;;;;;4141203;34;19956;-94
2021/04/15 04:41:06;;;;;;;10.32;2.40;;;;;;;;;;4132944;34;20057;-93
2021/04/15 04:43:57;;;;;;;11.35;2.65;;;;;;;;;;4140562;34;20052;-94
2021/04/15 04:46:29;;;;;;;;;;;;;;;;;;4140991;34;20078;-94
2021/04/15 04:49:23;;;;;;;10.65;2.40;;;;;;;;;;4141662;34;19986;-95
2021/04/15 04:52:18;;;;;;;15.48;2.30;;;;;;;;;;4141226;34;20066;-95
2021/04/15 04:54:53;;;;;;;10.35;2.08;;;;;;;;;;4134652;34;20110;-94
2021/04/15 04:57:37;;;;;;;10.25;2.50;;;;;;;;;;4140469;34;20112;-93
2021/04/15 05:00:22;;;;;;;13.73;2.55;;;;;;;;;;4143095;34;20053;-93
2021/04/15 05:03:02;;;;;;;11.90;2.27;;;;;;;;;;4135471;34;20489;-94
2021/04/15 05:05:32;;;;;;;15.05;2.33;;;;;;;;;;4141869;34;20090;-94
2021/04/15 05:08:39;;;;;;;12.88;2.35;;;;;;;;;;4142175;34;20060;-94
2021/04/15 05:11:38;;;;;;;14.32;2.85;;;;;;;;;;4147806;34;20052;-95
2021/04/15 05:14:54;;;;;;;14.30;2.08;;;;;;;;;;4150042;34;20110;-94
2021/04/15 05:17:43;;;;;;;13.00;2.15;;;;;;;;;;4146466;34;20127;-93
2021/04/15 05:20:36;;;;;;;11.98;1.77;;;;;;;;;;4152844;34;20456;-94
2021/04/15 05:23:53;;;;;;;10.73;2.42;;;;;;;;;;4153951;34;20064;-94
2021/04/15 05:26:49;;;;;;;15.18;2.42;;;;;;;;;;4147383;34;20056;-93
2021/04/15 05:29:42;;;;;;;12.02;2.15;;;;;;;;;;4154294;34;20104;-94
2021/04/15 05:32:39;;;;;;;11.98;2.05;;;;;;;;;;4144598;34;21259;-95
2021/04/15 05:35:30;;;;;;;14.32;2.35;;;;;;;;;;4143103;34;20151;-94
2021/04/15 05:38:24;;;;;;;14.00;2.40;;;;;;;;;;4144725;34;20757;-94
2021/04/15 05:41:06;;;;;;;14.35;2.40;;;;;;;;;;4150548;34;20065;-93
2021/04/15 05:44:07;;;;;;;17.62;2.45;;;;;;;;;;4143189;34;20052;-94
2021/04/15 05:46:49;;;;;;;12.45;2.30;;;;;;;;;;4153624;34;20092;-94
2021/04/15 05:49:33;;;;;;;11.48;2.17;;;;;;;;;;4154641;34;20482;-94
2021/04/15 05:52:30;;;;;;;13.57;2.50;;;;;;;;;;4148920;34;20522;-95
2021/04/15 05:55:31;;;;;;;10.25;1.77;;;;;;;;;;4151364;34;20053;-94
2021/04/15 05:58:20;;;;;;;;;;;;;;;;;;;;;
2021/04/15 06:01:05;;;;;;;13.30;2.80;;;;;;;;;;4150822;34;20066;-94
2021/04/15 06:03:57;;;;;;;12.10;2.15;;;;;;;;;;4140351;34;20114;-94
2021/04/15 06:06:35;;;;;;;11.85;1.77;;;;;;;;;;4141330;34;20064;-94
2021/04/15 06:09:15;;;;;;;12.55;1.77;;;;;;;;;;4151076;34;20056;-94
2021/04/15 06:12:12;;;;;;;15.68;2.30;;;;;;;;;;4138996;34;20092;-94
2021/04/15 06:15:22;;;;;;;13.83;2.53;;;;;;;;;;4139695;34;20091;-94
2021/04/15 06:18:09;;;;;;;10.20;2.30;;;;;;;;;;4105912;34;20083;-95
2021/04/15 06:20:57;;;;;;;14.43;2.33;;;;;;;;;;4140486;34;20152;-94
2021/04/15 06:23:35;;;;;;;14.70;2.33;;;;;;;;;;4141146;34;20052;-93
2021/04/15 06:26:31;;;;;;;11.10;1.70;;;;;;;;;;4142976;34;20052;-93
2021/04/15 06:29:26;;;;;;;13.00;2.37;;;;;;;;;;4158155;34;20222;-96
2021/04/15 06:32:06;;;;;;;15.85;2.45;;;;;;;;;;4150865;34;20045;-94
2021/04/15 06:34:46;;;;;;;11.65;1.92;;;;;;;;;;4147269;34;20414;-95
2021/04/15 06:38:07;;;;;;;12.95;2.08;;;;;;;;;;4140405;34;20067;-94
2021/04/15 06:41:22;;;;;;;12.20;2.15;;;;;;;;;;4151088;34;20102;-94
2021/04/15 06:44:25;;;;;;;16.12;2.35;;;;;;;;;;4125115;34;20048;-92
2021/04/15 06:47:17;;;;;;;12.63;2.08;;;;;;;;;;4135788;34;20087;-95
2021/04/15 06:50:14;;;;;;;;;;;;;;;;;;4140012;34;20087;-95
2021/04/15 06:53:01;;;;;;;8.65;2.15;;;;;;;;;;4138423;34;20026;-96
2021/04/15 06:55:35;;;;;;;10.98;2.00;;;;;;;;;;4160350;34;20052;-92
2021/04/15 06:58:16;;;;;;;9.10;1.83;;;;;;;;;;4135120;34;20090;-93
2021/04/15 07:01:07;;;;;;;11.27;1.85;;;;;;;;;;4151995;34;20079;-93
2021/04/15 07:04:02;;;;;;;9.32;1.58;;;;;;;;;;4158341;34;20097;-96
2021/04/15 07:07:16;;;;;;;9.75;1.90;;;;;;;;;;4154806;34;20084;-95
2021/04/15 07:10:36;;;;;;;11.85;2.12;;;;;;;;;;4156282;34;20075;-95
2021/04/15 07:13:39;;;;;;;8.35;1.90;;;;;;;;;;4148556;34;20109;-94
2021/04/15 07:16:56;;;;;;;11.15;1.75;;;;;;;;;;4134925;34;20053;-95
2021/04/15 07:20:14;;;;;;;12.23;2.15;;;;;;;;;;4150968;34;20042;-95
2021/04/15 07:23:13;;;;;;;9.20;1.67;;;;;;;;;;4143592;34;20068;-94
2021/04/15 07:25:56;;;;;;;26.62;16.40;;;;;;;;;;4145656;34;20161;-94
2021/04/15 07:33:03;;;;;;;19.55;16.70;;;;;;;;;;4160027;29;20075;31
2021/04/15 07:35:55;;;;;;;14.20;12.57;;;;;;;;;;4092579;34;20485;-79
2021/04/15 07:38:32;;;;;;;8.50;1.75;;;;;;;;;;4091064;34;20106;-77
2021/04/15 07:41:17;;;;;;;8.00;1.50;;;;;;;;;;4092022;34;20142;-77
2021/04/15 07:44:06;;;;;;;8.20;1.60;;;;;;;;;;4089917;34;20442;-77
2021/04/15 07:46:55;;;;;;;8.95;1.92;;;;;;;;;;4096510;34;20125;-77
2021/04/15 07:49:29;;;;;;;5.93;1.50;;;;;;;;;;4091347;34;20140;-80
2021/04/15 07:52:18;;;;;;;7.68;1.75;;;;;;;;;;4093501;34;20105;-78
2021/04/15 07:55:07;;;;;;;9.85;1.73;;;;;;;;;;4097880;34;20050;-78
2021/04/15 07:57:53;;;;;;;15.77;6.95;;;;;;;;;;4096633;34;20061;-81
2021/04/15 08:00:42;;;;;;;19.35;13.98;;;;;;;;;;4090312;34;20575;-80
2021/04/15 08:03:35;;;;;;;7.07;1.52;;;;;;;;;;4085696;34;20599;-79
2021/04/15 08:06:05;;;;;;;8.77;1.65;;;;;;;;;;4096992;35;20567;-80
2021/04/15 08:08:48;;;;;;;5.57;1.37;;;;;;;;;;4093197;34;20109;-80
2021/04/15 08:11:37;;;;;;;6.62;1.85;;;;;;;;;;4095743;34;20124;-81
2021/04/15 08:14:24;;;;;;;8.30;1.77;;;;;;;;;;4090050;34;20120;-81
2021/04/15 08:17:00;;;;;;;5.53;1.27;;;;;;;;;;4096652;34;20065;-78
2021/04/15 08:19:46;;;;;;;6.70;1.50;;;;;;;;;;4090058;34;20133;-79
2021/04/15 08:22:28;;;;;;;5.75;1.65;;;;;;;;;;4091355;34;20080;-79
2021/04/15 08:25:20;;;;;;;8.63;1.73;;;;;;;;;;4092411;34;20105;-79
2021/04/15 08:27:53;;;;;;;6.47;1.40;;;;;;;;;;4099352;34;20062;-78
2021/04/15 08:30:25;;;;;;;8.75;1.60;;;;;;;;;;4096600;35;20475;-78
2021/04/15 08:32:55;;;;;;;9.32;1.75;;;;;;;;;;4092675;34;20511;-79
2021/04/15 08:35:35;;;;;;;5.60;1.37;;;;;;;;;;4107186;34;20095;-77
2021/04/15 08:38:26;;;;;;;8.23;1.50;;;;;;;;;;4108445;34;20112;-78
2021/04/15 08:40:56;;;;;;;5.90;1.60;;;;;;;;;;4104789;34;20128;-79
2021/04/15 08:43:30;;;;;;;5.82;1.50;;;;;;;;;;4105188;34;20061;-78
2021/04/15 08:46:19;;;;;;;7.47;1.90;;;;;;;;;;4102994;34;20080;-79
2021/04/15 08:49:00;;;;;;;3.50;1.30;;;;;;;;;;4110787;34;20062;-79
2021/04/15 08:51:57;;;;;;;5.03;1.20;;;;;;;;;;4114945;34;20553;-78
2021/04/15 08:54:31;;;;;;;4.62;1.40;;;;;;;;;;4111894;34;20155;-78
2021/04/15 08:57:14;;;;;;;9.02;2.08;;;;;;;;;;4110880;34;20092;-78
2021/04/15 09:00:03;;;;;;;5.05;1.65;;;;;;;;;;4108801;34;20119;-78
2021/04/15 09:02:43;;;;;;;7.15;1.70;;;;;;;;;;4107345;34;20300;-78
2021/04/15 09:05:13;;;;;;;6.95;1.27;;;;;;;;;;4106032;34;20084;-79
2021/04/15 09:07:57;;;;;;;6.10;1.65;;;;;;;;;;4107315;34;20159;-79
2021/04/15 09:10:27;;;;;;;;;;;;;;;;;;4115172;34;20219;-78
2021/04/15 09:13:10;;;;;;;8.30;1.42;;;;;;;;;;4109304;34;20035;-80
2021/04/15 09:15:44;;;;;;;6.40;1.50;;;;;;;;;;4109798;34;20183;-78
2021/04/15 09:18:18;;;;;;;6.30;1.45;;;;;;;;;;4102804;34;20512;-77
2021/04/15 09:21:07;;;;;;;5.82;1.42;;;;;;;;;;4095327;34;20877;-78
2021/04/15 09:23:37;;;;;;;8.27;1.62;;;;;;;;;;4096481;34;20114;-78
2021/04/15 09:26:16;;;;;;;6.10;1.15;;;;;;;;;;4110495;34;20454;-77
2021/04/15 09:28:59;;;;;;;8.38;1.62;;;;;;;;;;4110684;34;20061;-77
2021/04/15 09:31:51;;;;;;;7.97;1.80;;;;;;;;;;4107553;34;20575;-80
2021/04/15 09:34:50;;;;;;;7.90;1.70;;;;;;;;;;4103280;34;20061;-78
2021/04/15 09:37:39;;;;;;;6.90;1.45;;;;;;;;;;4100668;34;20116;-78
2021/04/15 09:40:23;;;;;;;6.05;1.23;;;;;;;;;;4091169;34;20556;-79
2021/04/15 09:42:58;;;;;;;6.22;1.70;;;;;;;;;;4093419;34;20099;-77
2021/04/15 09:45:48;;;;;;;10.25;1.60;;;;;;;;;;4098683;34;20095;-79
2021/04/15 09:48:42;;;;;;;7.20;1.77;;;;;;;;;;4101338;34;20062;-76
2021/04/15 09:51:44;;;;;;;6.87;1.73;;;;;;;;;;4101225;34;20312;-78
2021/04/15 09:54:30;;;;;;;6.32;1.65;;;;;;;;;;4098388;34;20089;-78
2021/04/15 09:57:04;;;;;;;7.12;1.98;;;;;;;;;;4095402;34;20077;-79
2021/04/15 09:59:53;;;;;;;7.37;1.40;;;;;;;;;;4096512;34;20109;-78
2021/04/15 10:02:43;;;;;;;7.20;1.50;;;;;;;;;;4090806;34;20084;-79
2021/04/15 10:05:16;;;;;;;5.30;1.85;;;;;;;;;;4098001;34;20058;-78
2021/04/15 10:07:56;;;;;;;4.35;1.23;;;;;;;;;;4096149;34;20581;-80
2021/04/15 10:10:32;;;;;;;7.53;1.60;;;;;;;;;;4092238;34;20857;-79
2021/04/15 10:13:20;;;;;;;6.93;1.77;;;;;;;;;;4096048;34;20136;-77
2021/04/15 10:16:07;;;;;;;8.63;1.60;;;;;;;;;;4096846;34;20556;-78
2021/04/15 10:18:40;;;;;;;5.95;1.50;;;;;;;;;;4094674;34;20577;-77
2021/04/15 10:21:25;;;;;;;6.53;1.55;;;;;;;;;;4094737;34;20084;-80
2021/04/15 10:24:07;;;;;;;7.82;2.25;;;;;;;;;;4096744;34;20165;-79
2021/04/15 10:26:37;;;;;;;4.70;1.60;;;;;;;;;;4094227;34;20143;-79
2021/04/15 10:29:14;;;;;;;6.57;1.35;;;;;;;;;;4091706;34;20155;-77
2021/04/15 10:31:44;;;;;;;5.00;1.40;;;;;;;;;;4093666;34;20454;-78
2021/04/15 10:34:20;;;;;;;5.65;1.58;;;;;;;;;;4107972;34;20135;-77
2021/04/15 10:36:55;;;;;;;4.53;1.50;;;;;;;;;;4113037;34;20069;-78
2021/04/15 10:39:41;;;;;;;5.60;1.48;;;;;;;;;;4111046;34;20120;-76
2021/04/15 10:42:48;;;;;;;3.72;1.27;;;;;;;;;;4097600;34;20186;-77
2021/04/15 10:45:32;;;;;;;5.82;1.70;;;;;;;;;;4106357;34;20450;-77
2021/04/15 10:48:22;;;;;;;9.95;2.15;;;;;;;;;;4114718;34;20135;-78
2021/04/15 10:51:06;;;;;;;5.78;1.50;;;;;;;;;;4105939;34;20067;-79
2021/04/15 10:53:46;;;;;;;6.50;1.48;;;;;;;;;;4110618;34;20109;-79
2021/04/15 10:56:24;;;;;;;17.12;2.08;;;;;;;;;;4108815;34;20062;-77
2021/04/15 10:58:55;;;;;;;6.10;1.50;;;;;;;;;;4109102;34;20061;-78
2021/04/15 11:01:27;;;;;;;6.03;1.45;;;;;;;;;;4106501;34;20114;-78
2021/04/15 11:04:00;;;;;;;8.48;1.50;;;;;;;;;;4108187;34;20092;-76
2021/04/15 11:06:30;;;;;;;5.70;1.50;;;;;;;;;;4109816;34;20117;-79
2021/04/15 11:09:15;;;;;;;6.12;1.45;;;;;;;;;;4104625;34;20528;-77
2021/04/15 11:12:00;;;;;;;5.95;1.73;;;;;;;;;;4105158;34;20126;-78
2021/04/15 11:14:35;;;;;;;10.48;1.48;;;;;;;;;;4108566;34;20070;-78
2021/04/15 11:17:15;;;;;;;4.65;1.20;;;;;;;;;;4103976;34;20171;-79
2021/04/15 11:19:46;;;;;;;6.53;1.67;;;;;;;;;;4104245;34;20123;-79
2021/04/15 11:22:20;;;;;;;8.23;1.80;;;;;;;;;;4106604;34;20127;-78
2021/04/15 11:24:51;;;;;;;6.95;1.60;;;;;;;;;;4109005;34;20053;-78
2021/04/15 11:27:35;;;;;;;5.53;1.58;;;;;;;;;;4105874;34;20460;-77
2021/04/15 11:30:07;;;;;;;3.53;1.00;;;;;;;;;;4108834;34;20121;-79
2021/04/15 11:32:37;;;;;;;33.38;2.92;;;;;;;;;;4108334;34;20060;-80
2021/04/15 11:35:08;;;;;;;4.95;1.30;;;;;;;;;;4093854;34;20788;-80
2021/04/15 11:37:42;;;;;;;5.28;1.10;;;;;;;;;;4089300;34;20089;-80
2021/04/15 11:40:15;;;;;;;5.18;1.30;;;;;;;;;;4091605;34;20103;-80
2021/04/15 11:42:46;;;;;;;6.50;1.40;;;;;;;;;;4101315;34;20449;-79
2021/04/15 11:45:30;;;;;;;6.53;1.25;;;;;;;;;;4099024;35;20747;-79
2021/04/15 11:48:00;;;;;;;;;;;;;;;;;;4097375;34;20504;-79
2021/04/15 11:50:31;;;;;;;6.18;1.30;;;;;;;;;;4094289;35;19965;-81
2021/04/15 11:53:21;;;;;;;6.07;1.45;;;;;;;;;;4094855;34;20219;-80
2021/04/15 11:56:10;;;;;;;8.80;1.40;;;;;;;;;;4082444;34;20544;-80
2021/04/15 11:58:41;;;;;;;6.35;1.27;;;;;;;;;;4088344;34;20131;-78
2021/04/15 12:01:11;;;;;;;7.65;1.30;;;;;;;;;;4091993;34;20148;-81
2021/04/15 12:03:59;;;;;;;3.95;1.50;;;;;;;;;;4096087;34;20453;-79
2021/04/15 12:06:33;;;;;;;4.80;1.12;;;;;;;;;;4087851;34;20050;-81
2021/04/15 12:09:10;;;;;;;4.50;1.20;;;;;;;;;;4099196;34;20065;-79
2021/04/15 12:11:47;;;;;;;7.97;1.48;;;;;;;;;;4100175;35;20038;-81
2021/04/15 12:14:19;;;;;;;7.20;1.40;;;;;;;;;;4096748;34;20058;-80
2021/04/15 12:17:01;;;;;;;4.55;1.12;;;;;;;;;;4092856;34;20082;-80
2021/04/15 12:19:55;;;;;;;4.82;1.35;;;;;;;;;;4095321;34;20073;-80
2021/04/15 12:22:45;;;;;;;5.80;1.40;;;;;;;;;;4093336;34;20053;-81
2021/04/15 12:25:35;;;;;;;3.12;0.95;;;;;;;;;;4089738;34;20225;-81
2021/04/15 12:28:05;;;;;;;6.03;1.25;;;;;;;;;;4095603;34;20152;-80
2021/04/15 12:30:36;;;;;;;5.53;1.42;;;;;;;;;;4095293;34;20116;-81
2021/04/15 12:33:08;;;;;;;4.22;1.52;;;;;;;;;;4080069;34;20125;-81
2021/04/15 12:35:46;;;;;;;5.80;1.58;;;;;;;;;;4104216;34;20123;-80
2021/04/15 12:38:18;;;;;;;5.65;1.25;;;;;;;;;;4104496;34;20179;-82
2021/04/15 12:40:52;;;;;;;4.12;1.15;;;;;;;;;;4111689;34;20506;-81
2021/04/15 12:43:27;;;;;;;4.12;1.35;;;;;;;;;;4102634;34;20072;-80
2021/04/15 12:46:16;;;;;;;5.70;1.40;;;;;;;;;;4104867;34;20107;-80
2021/04/15 12:48:48;;;;;;;5.53;1.40;;;;;;;;;;4105183;34;20096;-82
2021/04/15 12:51:29;;;;;;;8.65;1.20;;;;;;;;;;4103075;34;20140;-81
2021/04/15 12:54:02;;;;;;;4.50;1.00;;;;;;;;;;4105712;34;20427;-80
2021/04/15 12:56:47;;;;;;;6.45;1.30;;;;;;;;;;4110502;34;20069;-79
2021/04/15 12:59:25;;;;;;;4.12;1.25;;;;;;;;;;4107200;34;20046;-82
2021/04/15 13:01:56;;;;;;;4.37;1.23;;;;;;;;;;4102420;34;20160;-81
2021/04/15 13:04:32;;;;;;;3.47;1.10;;;;;;;;;;4104323;34;20123;-81
2021/04/15 13:07:01;;;;;;;5.35;1.30;;;;;;;;;;4108244;34;20088;-81
2021/04/15 13:09:36;;;;;;;4.12;1.15;;;;;;;;;;4109575;34;20061;-80
2021/04/15 13:12:22;;;;;;;3.58;0.90;;;;;;;;;;4110229;34;20092;-80
2021/04/15 13:14:53;;;;;;;4.45;1.40;;;;;;;;;;4107872;34;20077;-80
2021/04/15 13:17:36;;;;;;;6.47;1.27;;;;;;;;;;4113207;34;20569;-80
2021/04/15 13:20:08;;;;;;;5.70;1.20;;;;;;;;;;4107570;34;20147;-78
2021/04/15 13:22:40;;;;;;;5.47;1.10;;;;;;;;;;4102451;34;20694;-81
2021/04/15 13:25:12;;;;;;;10.07;1.62;;;;;;;;;;4105646;34;20139;-81
2021/04/15 13:28:00;;;;;;;6.40;1.20;;;;;;;;;;4106710;34;20155;-80
2021/04/15 13:30:51;;;;;;;7.30;1.40;;;;;;;;;;4111458;34;20166;-81
2021/04/15 13:33:22;;;;;;;4.28;1.10;;;;;;;;;;4101470;34;20129;-80
2021/04/15 13:35:54;;;;;;;3.85;1.12;;;;;;;;;;4109996;34;20499;-79
2021/04/15 13:38:28;;;;;;;5.35;1.23;;;;;;;;;;4109353;34;20123;-80
2021/04/15 13:41:00;;;;;;;6.47;1.40;;;;;;;;;;4097190;34;21212;-82
2021/04/15 13:43:33;;;;;;;6.30;1.50;;;;;;;;;;4101855;34;20152;-80
2021/04/15 13:46:04;;;;;;;;;;;;;;;;;;4102649;34;20184;-81
2021/04/15 13:48:42;;;;;;;4.32;1.05;;;;;;;;;;4108018;34;20036;-80
2021/04/15 13:51:13;;;;;;;6.03;1.58;;;;;;;;;;4112712;34;20057;-81
2021/04/15 13:53:44;;;;;;;6.57;1.37;;;;;;;;;;4104913;34;20067;-78
2021/04/15 13:56:53;;;;;;;6.55;1.05;;;;;;;;;;4104759;34;20598;-80
2021/04/15 13:59:35;;;;;;;6.95;1.42;;;;;;;;;;4041720;35;20469;-81
2021/04/15 14:02:05;;;;;;;5.45;1.10;;;;;;;;;;4107671;34;20099;-81
2021/04/15 14:04:55;;;;;;;6.68;1.40;;;;;;;;;;4110660;34;20105;-78
2021/04/15 14:07:34;;;;;;;6.65;1.20;;;;;;;;;;4104669;34;20670;-80
2021/04/15 14:10:08;;;;;;;9.50;1.40;;;;;;;;;;4101901;34;20538;-80
2021/04/15 14:12:48;;;;;;;7.12;1.20;;;;;;;;;;4106982;34;20140;-79
2021/04/15 14:15:23;;;;;;;7.68;1.40;;;;;;;;;;4106385;34;20165;-80
2021/04/15 14:17:56;;;;;;;6.20;1.48;;;;;;;;;;4112557;34;20040;-81
2021/04/15 14:20:43;;;;;;;5.75;1.40;;;;;;;;;;4108263;34;20057;-79
2021/04/15 14:23:23;;;;;;;4.97;1.00;;;;;;;;;;4111690;34;20073;-79
2021/04/15 14:26:01;;;;;;;5.97;1.40;;;;;;;;;;4107377;34;20105;-81
2021/04/15 14:28:32;;;;;;;8.02;1.67;;;;;;;;;;4104943;34;21092;-78
2021/04/15 14:31:35;;;;;;;10.20;1.50;;;;;;;;;;4109886;34;20424;-79
2021/04/15 14:34:15;;;;;;;9.90;1.65;;;;;;;;;;4097868;34;20146;-79
2021/04/15 14:36:50;;;;;;;8.20;1.40;;;;;;;;;;4106294;34;20097;-79
2021/04/15 14:39:23;;;;;;;6.32;1.50;;;;;;;;;;4106660;34;20046;-80
2021/04/15 14:42:02;;;;;;;5.68;1.50;;;;;;;;;;4113069;34;20078;-79
2021/04/15 14:44:33;;;;;;;9.98;1.48;;;;;;;;;;4113115;34;20456;-78
2021/04/15 14:47:04;;;;;;;8.50;1.30;;;;;;;;;;4104031;34;20202;-78
2021/04/15 14:49:36;;;;;;;5.75;1.37;;;;;;;;;;4105593;34;20094;-79
2021/04/15 14:52:19;;;;;;;6.20;1.42;;;;;;;;;;4104053;34;20137;-79
2021/04/15 14:54:53;;;;;;;5.72;1.33;;;;;;;;;;4110323;34;20118;-79
2021/04/15 14:57:27;;;;;;;6.75;1.50;;;;;;;;;;4113806;34;20124;-78
2021/04/15 15:00:12;;;;;;;3.95;1.10;;;;;;;;;;4110276;34;20088;-79
2021/04/15 15:02:43;;;;;;;7.72;1.50;;;;;;;;;;4111524;34;20069;-80
2021/04/15 15:05:20;;;;;;;5.37;1.00;;;;;;;;;;4111106;34;20080;-80
2021/04/15 15:07:51;;;;;;;6.62;1.67;;;;;;;;;;4107227;34;20483;-78
2021/04/15 15:10:22;;;;;;;6.53;1.35;;;;;;;;;;4112286;34;20527;-79
2021/04/15 15:12:54;;;;;;;6.97;1.42;;;;;;;;;;4114414;34;20440;-79
2021/04/15 15:15:25;;;;;;;5.45;1.27;;;;;;;;;;4107433;34;20519;-78
2021/04/15 15:17:58;;;;;;;27.10;2.53;;;;;;;;;;4109315;34;20113;-80
2021/04/15 15:20:33;;;;;;;8.35;1.70;;;;;;;;;;4101900;34;20079;-78
2021/04/15 15:23:08;;;;;;;9.68;1.48;;;;;;;;;;4112244;34;20264;-79
2021/04/15 15:25:42;;;;;;;7.90;1.37;;;;;;;;;;4111390;34;20127;-79
2021/04/15 15:28:12;;;;;;;;;;;;;;;;;;4111574;34;20069;-80
2021/04/15 15:30:44;;;;;;;6.80;1.30;;;;;;;;;;4111960;34;19983;-78
2021/04/15 15:33:21;;;;;;;6.22;1.50;;;;;;;;;;4112858;34;20143;-81
2021/04/15 15:35:53;;;;;;;6.03;1.20;;;;;;;;;;4099254;34;20099;-80
2021/04/15 15:38:45;;;;;;;7.35;1.20;;;;;;;;;;4104323;34;20214;-80
2021/04/15 15:41:23;;;;;;;7.72;1.62;;;;;;;;;;4104892;34;20120;-79
2021/04/15 15:44:06;;;;;;;6.45;1.30;;;;;;;;;;4101844;34;20082;-79
2021/04/15 15:46:46;;;;;;;7.50;1.45;;;;;;;;;;4106366;34;20125;-79
2021/04/15 15:49:17;;;;;;;12.20;1.75;;;;;;;;;;4105940;34;20131;-80
2021/04/15 15:51:54;;;;;;;5.55;1.42;;;;;;;;;;4106705;34;20469;-79
2021/04/15 15:54:27;;;;;;;5.95;1.50;;;;;;;;;;4111266;34;20062;-79
2021/04/15 15:57:16;;;;;;;8.18;1.80;;;;;;;;;;4114081;34;20084;-79
2021/04/15 15:59:56;;;;;;;5.87;1.50;;;;;;;;;;4109568;34;20061;-80
2021/04/15 16:02:28;;;;;;;6.07;1.10;;;;;;;;;;4110938;34;20060;-79
2021/04/15 16:05:22;;;;;;;5.60;1.30;;;;;;;;;;4112525;34;20061;-79
2021/04/15 16:08:11;;;;;;;25.20;2.75;;;;;;;;;;4106121;34;20061;-79
2021/04/15 16:10:46;;;;;;;12.63;1.80;;;;;;;;;;4111274;34;20147;-80
2021/04/15 16:13:26;;;;;;;10.40;1.83;;;;;;;;;;4109532;34;20471;-80